createdAt,value
2022-10-22T00:01:55.924Z,98511.06
2022-10-22T00:04:58.934Z,98521.84
2022-10-22T00:08:01.443Z,98519.16
2022-10-22T00:11:12.679Z,98529.00
2022-10-22T00:14:16.252Z,98512.94
2022-10-22T00:17:19.075Z,98503.44
2022-10-22T00:20:22.795Z,98522.00
2022-10-22T00:23:25.768Z,98525.59
2022-10-22T00:26:28.475Z,98530.84
2022-10-22T00:29:31.725Z,98528.19
2022-10-22T00:32:34.306Z,98522.81
2022-10-22T00:35:37.115Z,98527.28
2022-10-22T00:38:39.546Z,98527.28
2022-10-22T00:41:43.872Z,98525.50
2022-10-22T00:45:07.065Z,98518.69
2022-10-22T00:48:09.905Z,98515.03
2022-10-22T00:51:12.392Z,98509.81
2022-10-22T00:54:15.209Z,98502.81
2022-10-22T00:57:18.852Z,98503.94
2022-10-22T01:00:22.076Z,98491.53
2022-10-22T01:03:24.920Z,98491.81
2022-10-22T01:06:31.231Z,98497.75
2022-10-22T01:09:48.104Z,98487.13
2022-10-22T01:13:05.984Z,98484.44
2022-10-22T01:16:27.017Z,98478.25
2022-10-22T01:19:40.284Z,98488.03
2022-10-22T01:22:52.289Z,98488.94
2022-10-22T01:26:09.567Z,98497.00
2022-10-22T01:29:33.773Z,98492.50
2022-10-22T01:32:58.561Z,98495.31
2022-10-22T01:36:01.537Z,98493.53
2022-10-22T01:39:05.348Z,98485.41
2022-10-22T01:42:08.101Z,98492.50
2022-10-22T01:45:12.922Z,98476.66
2022-10-22T01:48:40.205Z,98500.59
2022-10-22T01:52:04.500Z,98504.19
2022-10-22T01:55:30.306Z,98490.75
2022-10-22T01:58:39.417Z,98512.19
2022-10-22T02:01:49.707Z,98492.44
2022-10-22T02:05:03.175Z,98483.47
2022-10-22T02:08:22.309Z,98472.78
2022-10-22T02:11:25.228Z,98470.97
2022-10-22T02:14:29.758Z,98459.44
2022-10-22T02:17:36.840Z,98449.88
2022-10-22T02:20:41.784Z,98469.56
2022-10-22T02:23:44.990Z,98466.03
2022-10-22T02:27:06.563Z,98472.56
2022-10-22T02:30:19.024Z,98468.31
2022-10-22T02:33:31.009Z,98474.63
2022-10-22T02:36:34.147Z,98460.66
2022-10-22T02:39:37.218Z,98475.78
2022-10-22T02:42:41.256Z,98477.81
2022-10-22T02:45:44.320Z,98459.03
2022-10-22T02:48:47.305Z,98458.09
2022-10-22T02:51:49.924Z,98462.53
2022-10-22T02:54:52.793Z,98469.84
2022-10-22T02:57:55.323Z,98476.16
2022-10-22T03:00:58.261Z,98487.81
2022-10-22T03:04:00.846Z,98488.88
2022-10-22T03:07:03.887Z,98491.63
2022-10-22T03:10:07.174Z,98499.69
2022-10-22T03:13:09.996Z,98497.44
2022-10-22T03:16:12.531Z,98517.03
2022-10-22T03:19:15.594Z,98512.63
2022-10-22T03:22:23.724Z,98511.69
2022-10-22T03:25:27.335Z,98498.47
2022-10-22T03:28:31.594Z,98508.31
2022-10-22T03:31:34.477Z,98486.19
2022-10-22T03:34:37.071Z,98494.41
2022-10-22T03:37:40.381Z,98486.72
2022-10-22T03:40:44.026Z,98484.22
2022-10-22T03:43:50.206Z,98475.75
2022-10-22T03:46:52.671Z,98470.88
2022-10-22T03:49:55.614Z,98478.84
2022-10-22T03:52:58.305Z,98461.03
2022-10-22T03:56:01.206Z,98458.44
2022-10-22T03:59:04.517Z,98456.63
2022-10-22T04:02:07.861Z,98445.87
2022-10-22T04:05:10.857Z,98443.06
2022-10-22T04:08:15.659Z,98435.94
2022-10-22T04:11:18.678Z,98411.12
2022-10-22T04:14:21.265Z,98427.91
2022-10-22T04:17:24.214Z,98439.50
2022-10-22T04:20:26.781Z,98458.97
2022-10-22T04:23:29.577Z,98466.09
2022-10-22T04:26:32.423Z,98470.47
2022-10-22T04:29:35.280Z,98464.25
2022-10-22T04:32:37.889Z,98465.12
2022-10-22T04:35:40.691Z,98450.78
2022-10-22T04:38:45.404Z,98443.72
2022-10-22T04:41:48.300Z,98450.94
2022-10-22T04:44:50.881Z,98459.88
2022-10-22T04:47:53.691Z,98468.91
2022-10-22T04:50:58.341Z,98457.31
2022-10-22T04:54:01.218Z,98446.50
2022-10-22T04:57:03.906Z,98455.56
2022-10-22T05:00:07.598Z,98464.50
2022-10-22T05:03:10.129Z,98471.66
2022-10-22T05:09:21.345Z,98471.91
2022-10-22T05:12:24.364Z,98464.69
2022-10-22T05:15:27.021Z,98450.59
2022-10-22T05:18:29.921Z,98452.44
2022-10-22T05:21:32.969Z,98449.84
2022-10-22T05:24:37.193Z,98449.69
2022-10-22T05:27:39.978Z,98441.62
2022-10-22T05:30:43.060Z,98448.72
2022-10-22T05:33:46.790Z,98455.72
2022-10-22T05:36:49.720Z,98462.69
2022-10-22T05:40:01.759Z,98461.69
2022-10-22T05:43:15.183Z,98454.34
2022-10-22T05:46:22.467Z,98442.72
2022-10-22T05:49:25.615Z,98461.16
2022-10-22T05:52:28.098Z,98455.72
2022-10-22T05:55:31.000Z,98458.19
2022-10-22T05:58:34.187Z,98471.50
2022-10-22T06:01:39.205Z,98484.84
2022-10-22T06:04:42.278Z,98496.28
2022-10-22T06:07:44.837Z,98482.16
2022-10-22T06:10:47.725Z,98490.78
2022-10-22T06:13:51.255Z,98494.13
2022-10-22T06:16:55.008Z,98495.72
2022-10-22T06:19:58.123Z,98507.47
2022-10-22T06:23:01.094Z,98506.66
2022-10-22T06:26:04.731Z,98515.53
2022-10-22T06:29:08.119Z,98500.44
2022-10-22T06:32:11.274Z,98506.28
2022-10-22T06:35:14.323Z,98498.09
2022-10-22T06:38:17.064Z,98510.34
2022-10-22T06:41:21.335Z,98507.34
2022-10-22T06:44:25.462Z,98502.50
2022-10-22T06:47:28.285Z,98512.66
2022-10-22T06:50:31.267Z,98514.16
2022-10-22T06:53:34.765Z,98515.69
2022-10-22T06:56:37.287Z,98512.72
2022-10-22T06:59:40.406Z,98510.69
2022-10-22T07:02:43.448Z,98520.16
2022-10-22T07:05:46.516Z,98538.31
2022-10-22T07:08:49.176Z,98526.50
2022-10-22T07:11:52.043Z,98527.44
2022-10-22T07:14:54.616Z,98534.28
2022-10-22T07:17:57.987Z,98535.91
2022-10-22T07:21:01.243Z,98533.91
2022-10-22T07:24:04.282Z,98509.47
2022-10-22T07:27:09.449Z,98502.09
2022-10-22T07:30:14.758Z,98497.47
2022-10-22T07:33:17.435Z,98510.94
2022-10-22T07:36:20.430Z,98512.25
2022-10-22T07:39:25.787Z,98514.06
2022-10-22T07:45:36.045Z,98499.50
2022-10-22T07:48:39.379Z,98512.94
2022-10-22T07:51:42.051Z,98504.81
2022-10-22T07:54:46.038Z,98511.97
2022-10-22T07:57:48.548Z,98503.91
2022-10-22T08:00:52.082Z,98513.97
2022-10-22T08:03:54.934Z,98512.38
2022-10-22T08:06:57.739Z,98531.72
2022-10-22T08:10:00.501Z,98531.25
2022-10-22T08:13:03.271Z,98523.37
2022-10-22T08:16:06.214Z,98517.69
2022-10-22T08:19:08.917Z,98512.63
2022-10-22T08:22:11.681Z,98521.75
2022-10-22T08:25:15.410Z,98516.81
2022-10-22T08:28:21.166Z,98528.78
2022-10-22T08:31:24.781Z,98523.00
2022-10-22T08:34:27.590Z,98512.63
2022-10-22T08:37:30.180Z,98518.72
2022-10-22T08:40:35.520Z,98518.03
2022-10-22T08:44:17.152Z,98515.88
2022-10-22T08:47:32.070Z,98516.38
2022-10-22T08:50:41.436Z,98513.56
2022-10-22T08:54:00.992Z,98519.91
2022-10-22T08:58:16.201Z,98531.56
2022-10-22T09:01:23.396Z,98531.56
2022-10-22T09:04:30.816Z,98542.78
2022-10-22T09:07:33.640Z,98543.00
2022-10-22T09:10:38.987Z,98539.13
2022-10-22T09:13:44.060Z,98534.19
2022-10-22T09:17:18.918Z,98537.94
2022-10-22T09:20:28.777Z,98536.44
2022-10-22T09:24:03.726Z,98539.22
2022-10-22T09:27:28.000Z,98534.62
2022-10-22T09:30:34.399Z,98533.66
2022-10-22T09:33:37.122Z,98540.03
2022-10-22T09:36:39.605Z,98550.53
2022-10-22T09:39:48.280Z,98549.50
2022-10-22T09:42:51.189Z,98553.94
2022-10-22T09:46:02.355Z,98543.78
2022-10-22T09:49:10.567Z,98528.75
2022-10-22T09:52:28.412Z,98539.16
2022-10-22T09:55:31.055Z,98542.50
2022-10-22T09:58:43.990Z,98551.41
2022-10-22T10:01:46.421Z,98555.81
2022-10-22T10:04:51.611Z,98544.84
2022-10-22T10:07:54.176Z,98542.31
2022-10-22T10:11:01.589Z,98541.59
2022-10-22T10:14:24.675Z,98530.84
2022-10-22T10:17:37.347Z,98544.72
2022-10-22T10:20:41.330Z,98538.41
2022-10-22T10:24:02.988Z,98531.81
2022-10-22T10:27:10.306Z,98520.59
2022-10-22T10:30:17.654Z,98526.34
2022-10-22T10:33:34.326Z,98524.34
2022-10-22T10:36:49.498Z,98523.50
2022-10-22T10:40:29.088Z,98523.50
2022-10-22T10:43:50.375Z,98515.19
2022-10-22T10:46:52.777Z,98512.25
2022-10-22T10:50:09.712Z,98511.69
2022-10-22T10:53:25.007Z,98511.41
2022-10-22T10:56:49.739Z,98516.06
2022-10-22T11:00:02.714Z,98523.16
2022-10-22T11:03:26.855Z,98527.69
2022-10-22T11:06:34.437Z,98528.09
2022-10-22T11:09:42.836Z,98529.13
2022-10-22T11:12:48.950Z,98539.25
2022-10-22T11:16:01.358Z,98534.88
2022-10-22T11:19:55.706Z,98537.37
2022-10-22T11:23:19.944Z,98539.38
2022-10-22T11:26:50.897Z,98521.81
2022-10-22T11:30:02.642Z,98527.78
2022-10-22T11:33:14.795Z,98531.09
2022-10-22T11:36:19.776Z,98527.59
2022-10-22T11:39:43.058Z,98529.97
2022-10-22T11:42:48.502Z,98526.50
2022-10-22T11:45:58.577Z,98518.81
2022-10-22T11:49:04.685Z,98508.00
2022-10-22T11:52:24.240Z,98512.28
2022-10-22T11:55:32.383Z,98498.69
2022-10-22T11:58:44.695Z,98497.31
2022-10-22T12:01:48.055Z,98494.41
2022-10-22T12:04:51.195Z,98485.00
2022-10-22T12:07:56.994Z,98492.09
2022-10-22T12:11:06.031Z,98489.31
2022-10-22T12:14:29.212Z,98489.34
2022-10-22T12:17:32.097Z,98483.00
2022-10-22T12:20:34.666Z,98492.16
2022-10-22T12:23:37.608Z,98493.75
2022-10-22T12:26:40.086Z,98481.53
2022-10-22T12:29:42.897Z,98484.84
2022-10-22T12:32:45.987Z,98473.12
2022-10-22T12:35:51.574Z,98470.72
2022-10-22T12:38:54.222Z,98478.91
2022-10-22T12:41:56.973Z,98457.28
2022-10-22T12:44:59.519Z,98452.53
2022-10-22T12:48:05.499Z,98457.41
2022-10-22T12:51:09.539Z,98446.34
2022-10-22T12:54:33.059Z,98457.16
2022-10-22T12:57:35.552Z,98459.25
2022-10-22T13:00:39.263Z,98465.00
2022-10-22T13:03:45.018Z,98469.00
2022-10-22T13:06:52.809Z,98478.25
2022-10-22T13:09:59.846Z,98476.84
2022-10-22T13:13:04.107Z,98475.44
2022-10-22T13:16:15.073Z,98471.16
2022-10-22T13:19:44.481Z,98471.50
2022-10-22T13:23:02.693Z,98477.13
2022-10-22T13:26:15.285Z,98475.63
2022-10-22T13:29:22.119Z,98479.38
2022-10-22T13:32:31.292Z,98477.47
2022-10-22T13:35:38.236Z,98468.50
2022-10-22T13:38:41.707Z,98465.44
2022-10-22T13:41:44.422Z,98464.00
2022-10-22T13:44:47.359Z,98482.72
2022-10-22T13:47:52.281Z,98492.81
2022-10-22T13:50:55.758Z,98482.25
2022-10-22T13:53:58.482Z,98481.44
2022-10-22T13:57:01.328Z,98477.59
2022-10-22T14:00:04.156Z,98463.63
2022-10-22T14:03:20.528Z,98464.25
2022-10-22T14:06:23.670Z,98483.50
2022-10-22T14:09:26.282Z,98477.63
2022-10-22T14:12:28.943Z,98477.81
2022-10-22T14:15:31.549Z,98488.41
2022-10-22T14:18:34.918Z,98487.31
2022-10-22T14:21:38.063Z,98481.31
2022-10-22T14:24:40.864Z,98493.41
2022-10-22T14:27:45.273Z,98485.59
2022-10-22T14:30:48.158Z,98479.53
2022-10-22T14:33:50.817Z,98477.88
2022-10-22T14:36:53.506Z,98481.63
2022-10-22T14:40:01.650Z,98481.69
2022-10-22T14:43:05.599Z,98482.72
2022-10-22T14:46:09.142Z,98471.19
2022-10-22T14:49:11.903Z,98462.75
2022-10-22T14:52:15.050Z,98483.91
2022-10-22T14:55:20.868Z,98476.78
2022-10-22T14:58:23.457Z,98476.84
2022-10-22T15:01:26.230Z,98484.06
2022-10-22T15:04:30.537Z,98482.25
2022-10-22T15:07:33.379Z,98472.62
2022-10-22T15:10:36.143Z,98479.84
2022-10-22T15:13:41.367Z,98488.97
2022-10-22T15:16:43.897Z,98498.03
2022-10-22T15:19:46.875Z,98495.47
2022-10-22T15:22:49.552Z,98493.72
2022-10-22T15:25:52.357Z,98484.28
2022-10-22T15:28:55.145Z,98485.28
2022-10-22T15:31:59.428Z,98485.53
2022-10-22T15:35:02.350Z,98483.94
2022-10-22T15:38:09.173Z,98492.16
2022-10-22T15:41:13.536Z,98495.00
2022-10-22T15:44:18.817Z,98496.97
2022-10-22T15:47:22.737Z,98497.88
2022-10-22T15:50:28.067Z,98500.63
2022-10-22T15:53:30.753Z,98491.00
2022-10-22T15:56:33.583Z,98492.28
2022-10-22T15:59:36.479Z,98501.34
2022-10-22T16:02:39.795Z,98501.28
2022-10-22T16:05:51.466Z,98511.09
2022-10-22T16:08:54.895Z,98520.00
2022-10-22T16:11:57.979Z,98520.66
2022-10-22T16:15:00.520Z,98512.31
2022-10-22T16:18:03.326Z,98524.69
2022-10-22T16:21:06.028Z,98513.66
2022-10-22T16:24:09.411Z,98531.38
2022-10-22T16:27:12.357Z,98514.47
2022-10-22T16:30:16.309Z,98533.28
2022-10-22T16:33:19.073Z,98543.88
2022-10-22T16:36:22.469Z,98545.16
2022-10-22T16:39:25.335Z,98555.69
2022-10-22T16:42:28.322Z,98559.44
2022-10-22T16:45:31.263Z,98565.56
2022-10-22T16:48:34.455Z,98578.53
2022-10-22T16:51:37.049Z,98586.22
2022-10-22T16:54:40.083Z,98593.03
2022-10-22T16:57:50.055Z,98596.06
2022-10-22T17:00:53.143Z,98605.44
2022-10-22T17:03:58.706Z,98609.28
2022-10-22T17:07:01.780Z,98606.69
2022-10-22T17:10:05.374Z,98607.03
2022-10-22T17:13:08.468Z,98609.16
2022-10-22T17:16:13.285Z,98603.97
2022-10-22T17:19:16.422Z,98612.16
2022-10-22T17:22:19.139Z,98607.84
2022-10-22T17:25:24.399Z,98612.44
2022-10-22T17:28:28.051Z,98610.06
2022-10-22T17:31:33.149Z,98613.72
2022-10-22T17:34:35.689Z,98601.25
2022-10-22T17:37:39.512Z,98605.06
2022-10-22T17:40:42.466Z,98607.00
2022-10-22T17:46:54.115Z,98599.03
2022-10-22T17:49:58.151Z,98608.06
2022-10-22T17:53:00.950Z,98617.31
2022-10-22T17:56:07.117Z,98617.31
2022-10-22T17:59:13.172Z,98621.13
2022-10-22T18:02:18.082Z,98618.50
2022-10-22T18:05:24.494Z,98636.47
2022-10-22T18:08:27.308Z,98639.09
2022-10-22T18:11:32.517Z,98633.94
2022-10-22T18:14:35.467Z,98628.69
2022-10-22T18:17:39.704Z,98609.50
2022-10-22T18:20:42.687Z,98634.31
2022-10-22T18:23:46.355Z,98642.84
2022-10-22T18:26:49.198Z,98649.50
2022-10-22T18:29:52.529Z,98648.03
2022-10-22T18:32:55.438Z,98654.47
2022-10-22T18:36:07.605Z,98658.28
2022-10-22T18:39:15.849Z,98663.72
2022-10-22T18:42:19.748Z,98658.34
2022-10-22T18:45:23.152Z,98662.97
2022-10-22T18:48:26.504Z,98679.09
2022-10-22T18:51:33.191Z,98670.25
2022-10-22T18:54:37.446Z,98669.34
2022-10-22T18:57:46.142Z,98669.19
2022-10-22T19:00:50.215Z,98682.78
2022-10-22T19:03:53.091Z,98692.06
2022-10-22T19:06:56.834Z,98687.50
2022-10-22T19:09:59.721Z,98688.31
2022-10-22T19:13:04.519Z,98687.56
2022-10-22T19:16:20.404Z,98684.06
2022-10-22T19:19:24.446Z,98674.41
2022-10-22T19:22:27.579Z,98689.63
2022-10-22T19:25:30.754Z,98691.41
2022-10-22T19:28:33.903Z,98687.28
2022-10-22T19:31:38.142Z,98680.13
2022-10-22T19:34:41.197Z,98693.66
2022-10-22T19:37:48.250Z,98700.78
2022-10-22T19:40:51.379Z,98701.75
2022-10-22T19:43:55.575Z,98688.63
2022-10-22T19:46:58.717Z,98694.00
2022-10-22T19:50:01.833Z,98693.28
2022-10-22T19:53:04.579Z,98697.84
2022-10-22T19:56:09.248Z,98702.28
2022-10-22T19:59:12.147Z,98702.38
2022-10-22T20:02:16.027Z,98705.13
2022-10-22T20:05:19.106Z,98709.69
2022-10-22T20:08:21.779Z,98709.62
2022-10-22T20:11:26.898Z,98714.28
2022-10-22T20:14:29.394Z,98712.44
2022-10-22T20:17:32.838Z,98712.44
2022-10-22T20:20:37.789Z,98713.25
2022-10-22T20:23:41.725Z,98713.25
2022-10-22T20:26:46.259Z,98727.47
2022-10-22T20:29:49.123Z,98725.66
2022-10-22T20:32:51.646Z,98736.41
2022-10-22T20:36:07.696Z,98732.94
2022-10-22T20:39:13.165Z,98737.38
2022-10-22T20:42:16.549Z,98739.25
2022-10-22T20:45:19.288Z,98737.72
2022-10-22T20:48:32.721Z,98741.53
2022-10-22T20:51:36.474Z,98733.78
2022-10-22T20:54:42.555Z,98741.91
2022-10-22T20:57:46.732Z,98750.06
2022-10-22T21:00:50.434Z,98747.53
2022-10-22T21:03:53.410Z,98754.78
2022-10-22T21:06:57.544Z,98754.81
2022-10-22T21:10:07.437Z,98753.00
2022-10-22T21:13:11.119Z,98751.31
2022-10-22T21:16:14.860Z,98742.47
2022-10-22T21:19:19.300Z,98739.88
2022-10-22T21:22:21.851Z,98746.31
2022-10-22T21:25:24.668Z,98753.50
2022-10-22T21:28:27.307Z,98751.00
2022-10-22T21:31:30.216Z,98752.00
2022-10-22T21:34:38.057Z,98753.72
2022-10-22T21:37:42.150Z,98761.09
2022-10-22T21:40:44.815Z,98769.13
2022-10-22T21:43:48.028Z,98767.28
2022-10-22T21:46:50.754Z,98777.28
2022-10-22T21:49:53.921Z,98767.31
2022-10-22T21:52:56.462Z,98769.06
2022-10-22T21:55:59.906Z,98768.06
2022-10-22T21:59:03.898Z,98758.44
2022-10-22T22:02:06.835Z,98765.34
2022-10-22T22:05:09.766Z,98781.44
2022-10-22T22:08:12.335Z,98776.00
2022-10-22T22:11:18.097Z,98781.34
2022-10-22T22:14:20.699Z,98789.25
2022-10-22T22:17:23.548Z,98788.25
2022-10-22T22:20:26.154Z,98789.16
2022-10-22T22:23:29.004Z,98781.97
2022-10-22T22:26:31.563Z,98777.47
2022-10-22T22:29:34.638Z,98789.13
2022-10-22T22:32:37.286Z,98784.62
2022-10-22T22:38:47.529Z,98793.62
2022-10-22T22:41:50.716Z,98799.06
2022-10-22T22:44:53.263Z,98801.91
2022-10-22T22:47:56.150Z,98809.12
2022-10-22T22:51:01.966Z,98804.81
2022-10-22T22:54:05.064Z,98804.00
2022-10-22T22:57:07.552Z,98794.41
2022-10-22T23:00:11.137Z,98801.59
2022-10-22T23:03:14.220Z,98821.22
2022-10-22T23:06:17.035Z,98823.91
2022-10-22T23:12:28.925Z,98833.03
2022-10-22T23:15:31.432Z,98838.44
2022-10-22T23:18:35.167Z,98837.63
2022-10-22T23:21:39.919Z,98837.66
2022-10-22T23:24:42.862Z,98831.41
2022-10-22T23:27:45.532Z,98835.91
2022-10-22T23:30:48.940Z,98830.53
2022-10-22T23:33:51.473Z,98830.53
2022-10-22T23:36:55.094Z,98834.19
2022-10-22T23:39:57.855Z,98827.06
2022-10-22T23:43:01.027Z,98823.50
2022-10-22T23:46:08.931Z,98830.53
2022-10-22T23:49:11.964Z,98834.13
2022-10-22T23:52:14.596Z,98842.31
2022-10-22T23:55:20.770Z,98837.00
2022-10-22T23:58:23.572Z,98845.06
